createdAt,value
2023-03-22T00:00:57.396Z,38.00
2023-03-22T00:03:41.396Z,36.35
2023-03-22T00:05:07.198Z,40.00
2023-03-22T00:06:30.221Z,36.17
2023-03-22T00:07:54.303Z,37.47
2023-03-22T00:09:19.509Z,37.22
2023-03-22T00:10:46.946Z,38.03
2023-03-22T00:12:11.443Z,37.20
2023-03-22T00:13:35.708Z,36.17
2023-03-22T00:15:00.275Z,36.83
2023-03-22T00:16:22.385Z,36.40
2023-03-22T00:17:45.669Z,38.78
2023-03-22T00:19:07.098Z,35.03
2023-03-22T00:20:30.729Z,37.88
2023-03-22T00:21:53.040Z,37.30
2023-03-22T00:23:14.418Z,36.10
2023-03-22T00:24:36.406Z,36.43
2023-03-22T00:25:58.021Z,36.13
2023-03-22T00:27:21.989Z,36.67
2023-03-22T00:28:47.009Z,36.60
2023-03-22T00:30:12.208Z,37.55
2023-03-22T00:31:34.147Z,36.67
2023-03-22T00:32:57.028Z,38.05
2023-03-22T00:34:19.628Z,37.92
2023-03-22T00:35:41.202Z,37.55
2023-03-22T00:37:06.257Z,34.80
2023-03-22T00:38:41.991Z,34.60
2023-03-22T00:40:05.397Z,34.30
2023-03-22T00:41:27.393Z,35.10
2023-03-22T00:44:13.864Z,36.35
2023-03-22T00:45:38.294Z,36.28
2023-03-22T00:47:00.806Z,36.13
2023-03-22T00:48:22.807Z,35.63
2023-03-22T00:51:07.080Z,35.40
2023-03-22T00:53:55.601Z,36.50
2023-03-22T00:55:19.059Z,36.55
2023-03-22T00:56:45.642Z,37.78
2023-03-22T00:58:10.031Z,35.75
2023-03-22T00:59:32.868Z,36.53
2023-03-22T01:00:55.018Z,35.38
2023-03-22T01:02:17.855Z,35.63
2023-03-22T01:03:38.816Z,36.53
2023-03-22T01:05:02.639Z,35.42
2023-03-22T01:06:25.175Z,36.65
2023-03-22T01:09:07.731Z,36.85
2023-03-22T01:10:29.798Z,35.65
2023-03-22T01:11:51.778Z,36.17
2023-03-22T01:14:39.980Z,34.97
2023-03-22T01:16:02.195Z,36.63
2023-03-22T01:17:24.434Z,35.75
2023-03-22T01:18:48.684Z,36.55
2023-03-22T01:20:12.712Z,37.08
2023-03-22T01:21:34.350Z,38.92
2023-03-22T01:22:57.203Z,37.58
2023-03-22T01:24:19.730Z,39.63
2023-03-22T01:25:41.170Z,36.15
2023-03-22T01:27:03.671Z,37.17
2023-03-22T01:28:27.318Z,35.67
2023-03-22T01:29:49.956Z,36.35
2023-03-22T01:31:12.204Z,37.50
2023-03-22T01:32:33.406Z,36.22
2023-03-22T01:33:55.550Z,36.10
2023-03-22T01:35:19.638Z,35.88
2023-03-22T01:36:42.101Z,37.65
2023-03-22T01:38:05.833Z,36.42
2023-03-22T01:39:33.244Z,36.30
2023-03-22T01:40:59.886Z,35.88
2023-03-22T01:42:24.836Z,36.58
2023-03-22T01:44:12.681Z,35.05
2023-03-22T01:45:38.015Z,36.50
2023-03-22T01:47:00.912Z,35.75
2023-03-22T01:48:27.340Z,37.88
2023-03-22T01:49:49.672Z,37.42
2023-03-22T01:51:14.376Z,37.25
2023-03-22T01:52:51.428Z,36.92
2023-03-22T01:54:26.105Z,36.28
2023-03-22T01:55:47.881Z,35.88
2023-03-22T01:57:18.559Z,36.55
2023-03-22T01:58:42.812Z,34.50
2023-03-22T02:00:10.502Z,36.50
2023-03-22T02:01:37.245Z,36.17
2023-03-22T02:03:00.326Z,37.15
2023-03-22T02:04:34.594Z,34.67
2023-03-22T02:05:59.824Z,36.65
2023-03-22T02:07:27.516Z,35.63
2023-03-22T02:08:58.194Z,36.65
2023-03-22T02:10:25.671Z,35.33
2023-03-22T02:12:03.361Z,35.17
2023-03-22T02:13:48.167Z,35.03
2023-03-22T02:15:36.583Z,34.72
2023-03-22T02:17:26.643Z,35.63
2023-03-22T02:19:16.757Z,36.28
2023-03-22T02:21:10.674Z,35.42
2023-03-22T02:22:48.018Z,35.92
2023-03-22T02:24:56.984Z,32.85
2023-03-22T02:26:50.034Z,34.28
2023-03-22T02:28:25.084Z,35.78
2023-03-22T02:29:53.361Z,35.30
2023-03-22T02:31:35.417Z,35.35
2023-03-22T02:33:30.945Z,36.47
2023-03-22T02:35:37.057Z,35.58
2023-03-22T02:37:27.774Z,36.50
2023-03-22T02:39:08.382Z,35.28
2023-03-22T02:40:34.994Z,35.72
2023-03-22T02:42:28.974Z,37.20
2023-03-22T02:44:03.550Z,34.92
2023-03-22T02:45:31.504Z,35.67
2023-03-22T02:47:03.228Z,36.78
2023-03-22T02:48:30.490Z,38.58
2023-03-22T02:50:03.912Z,35.92
2023-03-22T02:51:30.541Z,36.55
2023-03-22T02:52:57.472Z,36.83
2023-03-22T02:54:28.233Z,36.90
2023-03-22T02:55:54.901Z,37.15
2023-03-22T02:57:25.770Z,35.97
2023-03-22T02:58:54.319Z,36.55
2023-03-22T03:00:19.500Z,35.72
2023-03-22T03:01:45.732Z,35.00
2023-03-22T03:03:12.865Z,36.65
2023-03-22T03:04:39.128Z,35.35
2023-03-22T03:06:08.529Z,36.60
2023-03-22T03:07:32.563Z,34.63
2023-03-22T03:08:58.114Z,36.13
2023-03-22T03:10:24.150Z,37.03
2023-03-22T03:11:47.575Z,34.42
2023-03-22T03:13:13.591Z,37.05
2023-03-22T03:14:35.673Z,36.30
2023-03-22T03:15:59.859Z,37.33
2023-03-22T03:17:33.834Z,35.03
2023-03-22T03:19:02.474Z,34.17
2023-03-22T03:20:39.300Z,34.50
2023-03-22T03:22:09.563Z,35.10
2023-03-22T03:23:41.526Z,36.95
2023-03-22T03:25:09.724Z,35.80
2023-03-22T03:26:44.700Z,35.90
2023-03-22T03:28:12.828Z,35.78
2023-03-22T03:29:42.722Z,34.58
2023-03-22T03:31:17.993Z,36.15
2023-03-22T03:32:43.247Z,35.97
2023-03-22T03:34:14.356Z,36.35
2023-03-22T03:35:41.091Z,35.88
2023-03-22T03:37:10.592Z,34.47
2023-03-22T03:38:38.499Z,36.25
2023-03-22T03:40:06.806Z,35.70
2023-03-22T03:41:33.286Z,36.85
2023-03-22T03:42:59.164Z,36.05
2023-03-22T03:44:26.083Z,34.92
2023-03-22T03:45:49.051Z,35.58
2023-03-22T03:47:12.361Z,35.78
2023-03-22T03:48:36.060Z,35.40
2023-03-22T03:49:58.686Z,35.90
2023-03-22T03:51:19.939Z,37.25
2023-03-22T03:52:42.459Z,35.00
2023-03-22T03:54:04.845Z,36.83
2023-03-22T03:55:48.495Z,36.03
2023-03-22T03:57:34.226Z,34.80
2023-03-22T03:58:56.957Z,33.30
2023-03-22T04:00:20.531Z,34.90
2023-03-22T04:02:05.723Z,36.83
2023-03-22T04:03:27.425Z,35.92
2023-03-22T04:05:20.319Z,35.65
2023-03-22T04:06:42.994Z,34.92
2023-03-22T04:08:08.546Z,35.33
2023-03-22T04:09:33.774Z,37.42
2023-03-22T04:11:11.326Z,36.03
2023-03-22T04:12:34.964Z,36.50
2023-03-22T04:14:18.727Z,36.83
2023-03-22T04:15:43.845Z,36.65
2023-03-22T04:17:10.637Z,38.13
2023-03-22T04:18:32.277Z,38.65
2023-03-22T04:19:58.304Z,35.88
2023-03-22T04:21:20.053Z,37.78
2023-03-22T04:22:49.939Z,37.75
2023-03-22T04:24:14.086Z,40.35
2023-03-22T04:25:39.201Z,40.95
2023-03-22T04:27:04.681Z,37.70
2023-03-22T04:28:34.034Z,37.47
2023-03-22T04:29:58.263Z,37.30
2023-03-22T04:31:40.272Z,36.65
2023-03-22T04:33:13.314Z,38.72
2023-03-22T04:34:55.483Z,39.35
2023-03-22T04:36:17.682Z,38.75
2023-03-22T04:37:59.470Z,56.17
2023-03-22T04:39:21.628Z,58.58
2023-03-22T04:40:53.368Z,102.18
2023-03-22T04:42:25.703Z,96.05
2023-03-22T04:45:35.215Z,89.43
2023-03-22T04:47:00.182Z,98.95
2023-03-22T04:48:22.464Z,76.45
2023-03-22T04:49:46.697Z,62.45
2023-03-22T04:51:12.571Z,71.10
2023-03-22T04:52:43.821Z,65.50
2023-03-22T04:54:07.384Z,48.28
2023-03-22T04:55:30.164Z,41.88
2023-03-22T04:56:53.542Z,40.70
2023-03-22T04:58:17.542Z,41.10
2023-03-22T04:59:41.601Z,40.38
2023-03-22T05:01:07.028Z,37.65
2023-03-22T05:02:32.439Z,42.45
2023-03-22T05:03:54.002Z,46.72
2023-03-22T05:05:18.919Z,46.03
2023-03-22T05:06:42.805Z,43.53
2023-03-22T05:09:39.874Z,38.10
2023-03-22T05:11:09.244Z,43.03
2023-03-22T05:12:30.617Z,50.80
2023-03-22T05:14:13.304Z,50.90
2023-03-22T05:15:35.714Z,47.33
2023-03-22T05:17:01.088Z,46.47
2023-03-22T05:18:26.414Z,44.78
2023-03-22T05:19:56.683Z,43.15
2023-03-22T05:21:25.211Z,43.08
2023-03-22T05:23:13.078Z,43.20
2023-03-22T05:27:31.891Z,41.67
2023-03-22T05:29:15.603Z,39.65
2023-03-22T05:31:08.516Z,38.80
2023-03-22T05:32:49.752Z,39.70
2023-03-22T05:34:12.363Z,38.70
2023-03-22T05:35:37.493Z,40.33
2023-03-22T05:37:00.929Z,40.95
2023-03-22T05:38:37.816Z,41.83
2023-03-22T05:40:01.008Z,41.67
2023-03-22T05:41:36.364Z,41.35
2023-03-22T05:42:58.746Z,39.63
2023-03-22T05:44:22.735Z,41.38
2023-03-22T05:45:58.786Z,42.17
2023-03-22T05:47:32.794Z,38.25
2023-03-22T05:49:04.159Z,38.75
2023-03-22T05:50:26.617Z,41.35
2023-03-22T05:51:50.771Z,40.95
2023-03-22T05:53:14.650Z,42.15
2023-03-22T05:54:43.431Z,40.80
2023-03-22T05:56:05.257Z,42.30
2023-03-22T05:57:30.148Z,39.35
2023-03-22T05:58:53.361Z,41.80
2023-03-22T06:00:24.467Z,41.47
2023-03-22T06:02:07.217Z,39.88
2023-03-22T06:03:28.966Z,40.03
2023-03-22T06:05:03.262Z,42.00
2023-03-22T06:06:28.203Z,38.13
2023-03-22T06:08:13.419Z,38.20
2023-03-22T06:09:36.239Z,39.15
2023-03-22T06:11:02.391Z,36.80
2023-03-22T06:12:27.726Z,37.92
2023-03-22T06:14:03.439Z,37.60
2023-03-22T06:15:42.201Z,39.88
2023-03-22T06:17:07.036Z,39.33
2023-03-22T06:18:29.727Z,36.83
2023-03-22T06:19:58.713Z,38.42
2023-03-22T06:21:22.151Z,38.35
2023-03-22T06:22:45.018Z,36.78
2023-03-22T06:24:06.762Z,39.30
2023-03-22T06:25:30.112Z,38.35
2023-03-22T06:26:51.802Z,40.92
2023-03-22T06:28:14.576Z,38.03
2023-03-22T06:29:43.318Z,38.83
2023-03-22T06:31:11.096Z,37.90
2023-03-22T06:32:47.109Z,38.33
2023-03-22T06:34:09.837Z,36.90
2023-03-22T06:35:35.283Z,36.90
2023-03-22T06:37:00.189Z,37.20
2023-03-22T06:38:35.973Z,36.15
2023-03-22T06:39:58.703Z,35.78
2023-03-22T06:41:26.735Z,36.28
2023-03-22T06:42:52.485Z,35.17
2023-03-22T06:44:14.597Z,37.65
2023-03-22T06:45:47.937Z,34.95
2023-03-22T06:47:16.390Z,35.55
2023-03-22T06:48:53.925Z,35.95
2023-03-22T06:50:16.888Z,35.30
2023-03-22T06:52:12.828Z,34.40
2023-03-22T06:53:35.427Z,35.00
2023-03-22T06:54:59.077Z,35.22
2023-03-22T06:56:21.690Z,36.67
2023-03-22T06:57:51.631Z,35.33
2023-03-22T06:59:14.055Z,35.17
2023-03-22T07:00:39.528Z,34.63
2023-03-22T07:02:08.152Z,35.65
2023-03-22T07:03:32.446Z,35.58
2023-03-22T07:05:07.878Z,35.03
2023-03-22T07:06:33.737Z,35.45
2023-03-22T07:07:58.744Z,35.10
2023-03-22T07:09:25.100Z,33.05
2023-03-22T07:11:01.242Z,34.40
2023-03-22T07:12:28.948Z,33.60
2023-03-22T07:14:00.587Z,34.55
2023-03-22T07:15:48.865Z,35.17
2023-03-22T07:17:33.152Z,33.92
2023-03-22T07:19:04.122Z,33.55
2023-03-22T07:20:28.466Z,34.33
2023-03-22T07:21:58.442Z,36.08
2023-03-22T07:23:28.717Z,34.65
2023-03-22T07:25:01.608Z,35.47
2023-03-22T07:26:26.831Z,37.65
2023-03-22T07:28:00.112Z,39.45
2023-03-22T07:29:29.859Z,35.63
2023-03-22T07:31:06.115Z,39.17
2023-03-22T07:32:44.234Z,40.10
2023-03-22T07:34:24.444Z,39.38
2023-03-22T07:36:03.521Z,34.22
2023-03-22T07:37:28.054Z,33.08
2023-03-22T07:38:54.312Z,42.45
2023-03-22T07:40:28.608Z,39.08
2023-03-22T07:42:00.448Z,43.50
2023-03-22T07:43:53.076Z,38.83
2023-03-22T07:45:18.622Z,39.15
2023-03-22T07:46:56.341Z,37.08
2023-03-22T07:48:32.695Z,43.50
2023-03-22T07:50:34.617Z,41.47
2023-03-22T07:52:06.952Z,37.45
2023-03-22T07:53:29.480Z,36.30
2023-03-22T07:54:59.444Z,35.70
2023-03-22T07:56:26.504Z,33.10
2023-03-22T07:57:49.250Z,31.45
2023-03-22T07:59:19.534Z,30.10
2023-03-22T08:00:42.476Z,31.33
2023-03-22T08:02:39.528Z,30.63
2023-03-22T08:04:02.903Z,30.48
2023-03-22T08:05:36.179Z,30.15
2023-03-22T08:07:04.826Z,30.98
2023-03-22T08:08:28.873Z,31.00
2023-03-22T08:09:58.367Z,29.58
2023-03-22T08:11:40.299Z,29.77
2023-03-22T08:13:04.239Z,29.02
2023-03-22T08:14:36.582Z,30.70
2023-03-22T08:16:06.304Z,28.70
2023-03-22T08:17:32.432Z,28.58
2023-03-22T08:18:54.959Z,26.60
2023-03-22T08:20:27.574Z,26.90
2023-03-22T08:21:56.360Z,27.73
2023-03-22T08:24:07.069Z,27.88
2023-03-22T08:25:40.163Z,28.45
2023-03-22T08:27:12.421Z,27.75
2023-03-22T08:28:41.566Z,28.67
2023-03-22T08:30:12.157Z,27.80
2023-03-22T08:31:39.277Z,25.77
2023-03-22T08:33:04.705Z,25.90
2023-03-22T08:34:33.582Z,25.98
2023-03-22T08:36:09.502Z,26.85
2023-03-22T08:37:39.838Z,25.63
2023-03-22T08:39:06.837Z,24.98
2023-03-22T08:40:47.216Z,23.85
2023-03-22T08:42:16.450Z,24.83
2023-03-22T08:43:39.956Z,24.67
2023-03-22T08:45:03.171Z,24.45
2023-03-22T08:46:31.497Z,22.60
2023-03-22T08:47:58.533Z,22.60
2023-03-22T08:49:27.661Z,24.55
2023-03-22T08:51:08.281Z,23.05
2023-03-22T08:52:43.290Z,22.33
2023-03-22T08:54:22.639Z,21.58
2023-03-22T08:56:02.514Z,22.60
2023-03-22T08:57:50.784Z,22.38
2023-03-22T08:59:36.328Z,22.15
2023-03-22T09:01:37.767Z,23.02
2023-03-22T09:03:03.835Z,21.70
2023-03-22T09:04:28.763Z,21.70
2023-03-22T09:05:52.977Z,22.52
2023-03-22T09:07:17.963Z,22.10
2023-03-22T09:08:47.413Z,21.85
2023-03-22T09:10:23.650Z,22.25
2023-03-22T09:11:48.037Z,21.58
2023-03-22T09:13:18.005Z,22.23
2023-03-22T09:14:48.289Z,22.23
2023-03-22T09:16:15.357Z,24.02
2023-03-22T09:17:39.681Z,22.17
2023-03-22T09:19:02.971Z,22.02
2023-03-22T09:20:26.668Z,21.88
2023-03-22T09:21:50.368Z,22.27
2023-03-22T09:23:36.306Z,20.90
2023-03-22T09:25:04.489Z,20.92
2023-03-22T09:26:30.415Z,18.77
2023-03-22T09:27:52.929Z,19.55
2023-03-22T09:29:17.261Z,20.15
2023-03-22T09:30:40.691Z,19.45
2023-03-22T09:32:07.342Z,18.80
2023-03-22T09:33:44.626Z,17.10
2023-03-22T09:35:08.854Z,17.52
2023-03-22T09:36:43.077Z,18.10
2023-03-22T09:38:06.684Z,16.50
2023-03-22T09:39:30.007Z,17.80
2023-03-22T09:41:03.319Z,17.05
2023-03-22T09:42:35.434Z,19.08
2023-03-22T09:44:05.625Z,16.95
2023-03-22T09:45:38.750Z,17.10
2023-03-22T09:47:07.128Z,18.50
2023-03-22T09:48:34.033Z,17.60
2023-03-22T09:50:14.274Z,18.90
2023-03-22T09:51:43.112Z,17.35
2023-03-22T09:53:15.136Z,17.00
2023-03-22T09:54:42.344Z,16.60
2023-03-22T09:56:11.891Z,16.85
2023-03-22T09:57:38.096Z,16.02
2023-03-22T09:59:15.068Z,16.95
2023-03-22T10:00:45.864Z,17.08
2023-03-22T10:02:28.759Z,16.38
2023-03-22T10:04:13.746Z,15.63
2023-03-22T10:05:42.159Z,14.63
2023-03-22T10:07:12.042Z,15.45
2023-03-22T10:08:52.546Z,13.63
2023-03-22T10:10:23.637Z,14.13
2023-03-22T10:11:50.384Z,13.95
2023-03-22T10:13:23.362Z,13.77
2023-03-22T10:14:53.041Z,14.00
2023-03-22T10:16:29.712Z,13.45
2023-03-22T10:18:02.180Z,13.05
2023-03-22T10:19:28.404Z,12.32
2023-03-22T10:20:59.339Z,13.80
2023-03-22T10:22:30.293Z,13.88
2023-03-22T10:23:57.032Z,13.87
2023-03-22T10:25:27.105Z,13.70
2023-03-22T10:26:50.220Z,13.18
2023-03-22T10:28:20.717Z,12.68
2023-03-22T10:29:54.422Z,13.48
2023-03-22T10:31:21.573Z,13.30
2023-03-22T10:32:57.750Z,13.98
2023-03-22T10:34:24.937Z,14.10
2023-03-22T10:35:53.568Z,13.15
2023-03-22T10:37:19.098Z,12.82
2023-03-22T10:38:48.485Z,14.02
2023-03-22T10:40:20.440Z,13.40
2023-03-22T10:41:43.159Z,12.52
2023-03-22T10:43:14.495Z,13.43
2023-03-22T10:44:50.429Z,13.33
2023-03-22T10:46:24.511Z,13.63
2023-03-22T10:47:52.106Z,13.73
2023-03-22T10:49:23.659Z,14.25
2023-03-22T10:50:46.350Z,14.25
2023-03-22T10:52:25.437Z,13.57
2023-03-22T10:53:49.790Z,14.20
2023-03-22T10:55:13.882Z,14.43
2023-03-22T10:56:36.522Z,14.77
2023-03-22T10:58:12.518Z,14.88
2023-03-22T10:59:48.839Z,15.25
2023-03-22T11:01:17.500Z,15.68
2023-03-22T11:02:52.432Z,15.88
2023-03-22T11:05:39.120Z,15.63
2023-03-22T11:07:01.665Z,19.33
2023-03-22T11:08:24.381Z,16.88
2023-03-22T11:09:48.143Z,16.60
2023-03-22T11:11:23.258Z,16.33
2023-03-22T11:12:51.155Z,16.83
2023-03-22T11:14:18.629Z,15.85
2023-03-22T11:15:52.372Z,16.60
2023-03-22T11:17:19.459Z,16.75
2023-03-22T11:18:43.361Z,17.83
2023-03-22T11:20:07.826Z,16.05
2023-03-22T11:21:34.214Z,15.77
2023-03-22T11:22:58.083Z,14.77
2023-03-22T11:24:24.042Z,14.85
2023-03-22T11:25:49.526Z,15.85
2023-03-22T11:27:21.608Z,15.95
2023-03-22T11:30:21.273Z,16.95
2023-03-22T11:31:55.188Z,17.25
2023-03-22T11:33:21.339Z,16.75
2023-03-22T11:34:47.480Z,14.93
2023-03-22T11:36:19.111Z,16.48
2023-03-22T11:37:42.732Z,15.45
2023-03-22T11:39:09.395Z,15.38
2023-03-22T11:40:32.650Z,17.08
2023-03-22T11:41:57.761Z,15.98
2023-03-22T11:43:24.789Z,16.20
2023-03-22T11:44:46.939Z,17.17
2023-03-22T11:46:10.173Z,18.65
2023-03-22T11:47:37.379Z,23.50
2023-03-22T11:49:02.049Z,18.17
2023-03-22T11:50:31.484Z,17.58
2023-03-22T11:51:54.592Z,16.05
2023-03-22T11:53:19.578Z,17.05
2023-03-22T11:54:43.991Z,16.15
2023-03-22T11:56:08.752Z,17.08
2023-03-22T11:57:37.227Z,16.63
2023-03-22T11:59:04.615Z,18.10
2023-03-22T12:00:29.728Z,18.65
2023-03-22T12:01:56.711Z,18.88
2023-03-22T12:03:23.349Z,20.13
2023-03-22T12:04:49.239Z,24.05
2023-03-22T12:06:26.072Z,19.27
2023-03-22T12:07:50.052Z,17.42
2023-03-22T12:09:25.199Z,17.30
2023-03-22T12:10:51.558Z,16.48
2023-03-22T12:12:19.226Z,15.40
2023-03-22T12:13:48.173Z,15.35
2023-03-22T12:15:17.071Z,15.15
2023-03-22T12:16:48.781Z,13.98
2023-03-22T12:18:17.774Z,14.38
2023-03-22T12:19:52.088Z,13.05
2023-03-22T12:21:15.849Z,13.68
2023-03-22T12:22:43.494Z,14.20
2023-03-22T12:24:13.190Z,12.95
2023-03-22T12:25:38.349Z,13.35
2023-03-22T12:27:06.561Z,12.80
2023-03-22T12:28:34.893Z,14.98
2023-03-22T12:30:01.011Z,13.68
2023-03-22T12:31:26.676Z,14.00
2023-03-22T12:32:53.839Z,12.88
2023-03-22T12:34:18.850Z,11.93
2023-03-22T12:35:46.330Z,13.30
2023-03-22T12:37:22.077Z,13.05
2023-03-22T12:38:50.579Z,13.95
2023-03-22T12:40:22.200Z,12.95
2023-03-22T12:41:48.235Z,14.60
2023-03-22T12:43:18.301Z,13.10
2023-03-22T12:44:46.485Z,16.67
2023-03-22T12:46:20.106Z,11.13
2023-03-22T12:47:45.610Z,10.88
2023-03-22T12:49:21.569Z,10.93
2023-03-22T12:50:48.467Z,11.65
2023-03-22T12:52:16.820Z,8.98
2023-03-22T12:53:43.681Z,9.68
2023-03-22T12:55:07.328Z,10.20
2023-03-22T12:56:38.374Z,10.40
2023-03-22T12:58:01.810Z,10.82
2023-03-22T12:59:28.055Z,10.10
2023-03-22T13:00:55.081Z,10.05
2023-03-22T13:02:20.382Z,10.73
2023-03-22T13:03:47.597Z,9.85
2023-03-22T13:05:12.927Z,8.20
2023-03-22T13:06:57.296Z,8.80
2023-03-22T13:08:22.006Z,8.05
2023-03-22T13:09:46.760Z,7.38
2023-03-22T13:11:24.299Z,7.45
2023-03-22T13:13:16.045Z,7.43
2023-03-22T13:15:00.423Z,6.70
2023-03-22T13:16:25.558Z,7.50
2023-03-22T13:17:48.008Z,7.53
2023-03-22T13:19:29.707Z,7.38
2023-03-22T13:21:13.984Z,6.40
2023-03-22T13:23:01.747Z,7.28
2023-03-22T13:24:25.016Z,6.68
2023-03-22T13:26:03.874Z,7.03
2023-03-22T13:27:38.034Z,6.45
2023-03-22T13:29:03.453Z,6.55
2023-03-22T13:30:28.140Z,7.88
2023-03-22T13:31:58.857Z,7.28
2023-03-22T13:33:25.904Z,6.65
2023-03-22T13:34:50.995Z,6.53
2023-03-22T13:36:25.735Z,7.05
2023-03-22T13:37:51.342Z,7.05
2023-03-22T13:39:17.827Z,6.40
2023-03-22T13:40:50.994Z,6.90
2023-03-22T13:42:22.995Z,8.13
2023-03-22T13:43:50.317Z,7.03
2023-03-22T13:45:32.655Z,7.10
2023-03-22T13:46:59.839Z,6.82
2023-03-22T13:48:33.667Z,7.32
2023-03-22T13:50:02.514Z,7.93
2023-03-22T13:51:32.023Z,6.57
2023-03-22T13:52:59.756Z,7.60
2023-03-22T13:54:25.119Z,7.18
2023-03-22T13:56:00.446Z,6.80
2023-03-22T13:57:46.463Z,6.90
2023-03-22T13:59:12.966Z,6.63
2023-03-22T14:00:42.840Z,6.97
2023-03-22T14:02:13.058Z,7.45
2023-03-22T14:03:37.807Z,7.15
2023-03-22T14:05:04.314Z,6.50
2023-03-22T14:06:29.322Z,6.97
2023-03-22T14:07:54.543Z,6.57
2023-03-22T14:09:26.814Z,6.97
2023-03-22T14:10:53.888Z,7.97
2023-03-22T14:12:21.330Z,6.95
2023-03-22T14:13:56.406Z,7.85
2023-03-22T14:15:20.985Z,8.80
2023-03-22T14:16:47.118Z,7.13
2023-03-22T14:18:17.328Z,8.32
2023-03-22T14:19:40.095Z,6.88
2023-03-22T14:21:07.650Z,6.25
